sensor_id;sensor_type;location;lat;lon;timestamp;pressure;altitude;pressure_sealevel;temperature;humidity
4346;BME280;2186;49.866;7.986;2022-07-17T00:01:56;101154.16;;;15.62;67.84
4346;BME280;2186;49.866;7.986;2022-07-17T00:04:22;101152.28;;;15.38;68.54
4346;BME280;2186;49.866;7.986;2022-07-17T00:06:50;101156.31;;;15.25;68.96
4346;BME280;2186;49.866;7.986;2022-07-17T00:09:16;101160.47;;;15.33;68.99
4346;BME280;2186;49.866;7.986;2022-07-17T00:11:42;101149.44;;;15.43;69.10
4346;BME280;2186;49.866;7.986;2022-07-17T00:14:09;101157.25;;;15.24;69.84
4346;BME280;2186;49.866;7.986;2022-07-17T00:16:36;101152.28;;;14.85;71.53
4346;BME280;2186;49.866;7.986;2022-07-17T00:19:02;101152.00;;;14.93;70.96
4346;BME280;2186;49.866;7.986;2022-07-17T00:21:29;101150.03;;;14.99;70.77
4346;BME280;2186;49.866;7.986;2022-07-17T00:23:56;101154.69;;;15.19;70.49
4346;BME280;2186;49.866;7.986;2022-07-17T00:26:23;101154.41;;;15.02;71.06
4346;BME280;2186;49.866;7.986;2022-07-17T00:28:49;101156.66;;;14.88;71.42
4346;BME280;2186;49.866;7.986;2022-07-17T00:31:16;101148.69;;;14.58;72.48
4346;BME280;2186;49.866;7.986;2022-07-17T00:33:42;101153.00;;;14.62;72.61
4346;BME280;2186;49.866;7.986;2022-07-17T00:36:09;101154.13;;;14.55;72.70
4346;BME280;2186;49.866;7.986;2022-07-17T00:38:35;101159.53;;;14.54;73.21
4346;BME280;2186;49.866;7.986;2022-07-17T00:41:02;101152.81;;;14.68;72.63
4346;BME280;2186;49.866;7.986;2022-07-17T00:43:28;101155.00;;;14.56;72.68
4346;BME280;2186;49.866;7.986;2022-07-17T00:46:04;101156.38;;;14.39;72.80
4346;BME280;2186;49.866;7.986;2022-07-17T00:48:31;101148.19;;;14.45;73.41
4346;BME280;2186;49.866;7.986;2022-07-17T00:50:58;101151.25;;;14.32;73.22
4346;BME280;2186;49.866;7.986;2022-07-17T00:53:26;101159.88;;;14.41;73.06
4346;BME280;2186;49.866;7.986;2022-07-17T00:55:55;101159.59;;;14.50;72.54
4346;BME280;2186;49.866;7.986;2022-07-17T00:58:24;101149.59;;;14.28;73.20
4346;BME280;2186;49.866;7.986;2022-07-17T01:00:53;101143.63;;;14.18;74.15
4346;BME280;2186;49.866;7.986;2022-07-17T01:03:22;101143.47;;;13.93;74.28
4346;BME280;2186;49.866;7.986;2022-07-17T01:05:48;101146.31;;;13.87;74.33
4346;BME280;2186;49.866;7.986;2022-07-17T01:08:15;101149.97;;;13.83;75.00
4346;BME280;2186;49.866;7.986;2022-07-17T01:10:42;101145.88;;;14.02;73.78
4346;BME280;2186;49.866;7.986;2022-07-17T01:13:08;101148.84;;;13.91;75.00
4346;BME280;2186;49.866;7.986;2022-07-17T01:15:38;101144.91;;;13.74;75.90
4346;BME280;2186;49.866;7.986;2022-07-17T01:18:10;101148.19;;;13.83;75.05
4346;BME280;2186;49.866;7.986;2022-07-17T01:20:39;101155.66;;;13.72;76.02
4346;BME280;2186;49.866;7.986;2022-07-17T01:23:06;101148.94;;;13.56;76.25
4346;BME280;2186;49.866;7.986;2022-07-17T01:25:33;101149.88;;;13.55;76.53
4346;BME280;2186;49.866;7.986;2022-07-17T01:28:00;101150.88;;;13.51;76.56
4346;BME280;2186;49.866;7.986;2022-07-17T01:30:27;101141.28;;;13.44;76.79
4346;BME280;2186;49.866;7.986;2022-07-17T01:32:54;101141.44;;;13.38;77.22
4346;BME280;2186;49.866;7.986;2022-07-17T01:35:21;101149.22;;;13.47;76.76
4346;BME280;2186;49.866;7.986;2022-07-17T01:37:48;101140.22;;;13.49;76.77
4346;BME280;2186;49.866;7.986;2022-07-17T01:40:15;101148.47;;;13.40;77.03
4346;BME280;2186;49.866;7.986;2022-07-17T01:42:46;101151.28;;;13.36;76.87
4346;BME280;2186;49.866;7.986;2022-07-17T01:45:14;101151.19;;;13.39;77.29
4346;BME280;2186;49.866;7.986;2022-07-17T01:47:41;101146.59;;;13.45;77.24
4346;BME280;2186;49.866;7.986;2022-07-17T01:50:11;101153.03;;;13.37;76.74
4346;BME280;2186;49.866;7.986;2022-07-17T01:52:40;101149.81;;;13.24;77.33
4346;BME280;2186;49.866;7.986;2022-07-17T01:55:08;101155.88;;;13.30;77.38
4346;BME280;2186;49.866;7.986;2022-07-17T01:57:35;101148.28;;;13.12;78.35
4346;BME280;2186;49.866;7.986;2022-07-17T02:00:07;101152.69;;;13.13;78.02
4346;BME280;2186;49.866;7.986;2022-07-17T02:02:34;101156.16;;;13.20;77.40
4346;BME280;2186;49.866;7.986;2022-07-17T02:05:01;101151.00;;;13.11;79.29
4346;BME280;2186;49.866;7.986;2022-07-17T02:07:27;101152.66;;;13.16;78.80
4346;BME280;2186;49.866;7.986;2022-07-17T02:09:54;101149.91;;;12.82;79.70
4346;BME280;2186;49.866;7.986;2022-07-17T02:12:20;101154.38;;;12.82;79.89
4346;BME280;2186;49.866;7.986;2022-07-17T02:14:47;101146.28;;;12.85;80.14
4346;BME280;2186;49.866;7.986;2022-07-17T02:17:13;101153.16;;;12.58;80.54
4346;BME280;2186;49.866;7.986;2022-07-17T02:19:40;101149.78;;;12.51;81.49
4346;BME280;2186;49.866;7.986;2022-07-17T02:22:06;101152.94;;;12.67;80.85
4346;BME280;2186;49.866;7.986;2022-07-17T02:24:33;101152.66;;;12.79;79.93
4346;BME280;2186;49.866;7.986;2022-07-17T02:27:00;101150.38;;;12.64;80.56
4346;BME280;2186;49.866;7.986;2022-07-17T02:29:26;101150.31;;;12.65;80.63
4346;BME280;2186;49.866;7.986;2022-07-17T02:31:53;101137.66;;;12.73;80.11
4346;BME280;2186;49.866;7.986;2022-07-17T02:34:19;101152.13;;;12.65;80.18
4346;BME280;2186;49.866;7.986;2022-07-17T02:36:45;101154.88;;;12.62;80.34
4346;BME280;2186;49.866;7.986;2022-07-17T02:39:12;101153.16;;;12.58;80.43
4346;BME280;2186;49.866;7.986;2022-07-17T02:41:38;101148.13;;;12.83;80.01
4346;BME280;2186;49.866;7.986;2022-07-17T02:44:05;101152.84;;;12.71;80.09
4346;BME280;2186;49.866;7.986;2022-07-17T02:46:31;101153.31;;;12.52;81.48
4346;BME280;2186;49.866;7.986;2022-07-17T02:48:58;101161.47;;;12.44;81.84
4346;BME280;2186;49.866;7.986;2022-07-17T02:51:25;101153.28;;;12.53;81.56
4346;BME280;2186;49.866;7.986;2022-07-17T02:53:51;101146.72;;;12.28;82.26
4346;BME280;2186;49.866;7.986;2022-07-17T02:56:18;101148.28;;;12.38;82.14
4346;BME280;2186;49.866;7.986;2022-07-17T02:58:44;101155.41;;;12.37;81.97
4346;BME280;2186;49.866;7.986;2022-07-17T03:01:11;101153.81;;;12.29;82.47
4346;BME280;2186;49.866;7.986;2022-07-17T03:03:37;101156.94;;;12.06;83.57
4346;BME280;2186;49.866;7.986;2022-07-17T03:06:04;101153.19;;;12.16;82.97
4346;BME280;2186;49.866;7.986;2022-07-17T03:08:30;101148.38;;;11.92;83.93
4346;BME280;2186;49.866;7.986;2022-07-17T03:10:57;101155.09;;;12.11;83.60
4346;BME280;2186;49.866;7.986;2022-07-17T03:13:23;101163.28;;;12.00;83.66
4346;BME280;2186;49.866;7.986;2022-07-17T03:15:50;101159.13;;;11.87;84.19
4346;BME280;2186;49.866;7.986;2022-07-17T03:18:17;101161.97;;;11.79;84.33
4346;BME280;2186;49.866;7.986;2022-07-17T03:20:43;101165.53;;;11.75;84.44
4346;BME280;2186;49.866;7.986;2022-07-17T03:23:10;101161.03;;;11.80;84.66
4346;BME280;2186;49.866;7.986;2022-07-17T03:25:37;101169.03;;;11.80;84.10
4346;BME280;2186;49.866;7.986;2022-07-17T03:28:03;101162.94;;;11.72;84.59
4346;BME280;2186;49.866;7.986;2022-07-17T03:30:30;101161.69;;;11.92;84.64
4346;BME280;2186;49.866;7.986;2022-07-17T03:32:56;101161.84;;;11.84;85.12
4346;BME280;2186;49.866;7.986;2022-07-17T03:35:23;101159.63;;;12.06;84.60
4346;BME280;2186;49.866;7.986;2022-07-17T03:37:49;101158.13;;;11.91;84.34
4346;BME280;2186;49.866;7.986;2022-07-17T03:40:15;101163.72;;;11.77;84.76
4346;BME280;2186;49.866;7.986;2022-07-17T03:42:43;101171.84;;;11.71;85.56
4346;BME280;2186;49.866;7.986;2022-07-17T03:45:09;101158.56;;;11.70;85.54
4346;BME280;2186;49.866;7.986;2022-07-17T03:47:36;101168.13;;;11.78;85.83
4346;BME280;2186;49.866;7.986;2022-07-17T03:50:02;101170.75;;;11.83;85.94
4346;BME280;2186;49.866;7.986;2022-07-17T03:52:29;101175.09;;;11.87;85.62
4346;BME280;2186;49.866;7.986;2022-07-17T03:54:56;101169.00;;;11.82;85.75
4346;BME280;2186;49.866;7.986;2022-07-17T03:57:22;101169.56;;;11.98;85.09
4346;BME280;2186;49.866;7.986;2022-07-17T03:59:49;101162.69;;;11.86;85.55
4346;BME280;2186;49.866;7.986;2022-07-17T04:02:15;101164.63;;;11.79;85.95
4346;BME280;2186;49.866;7.986;2022-07-17T04:04:42;101169.44;;;11.57;88.66
4346;BME280;2186;49.866;7.986;2022-07-17T04:07:08;101167.78;;;11.52;88.07
4346;BME280;2186;49.866;7.986;2022-07-17T04:09:59;101170.03;;;11.72;87.50
4346;BME280;2186;49.866;7.986;2022-07-17T04:12:26;101162.81;;;11.81;87.27
4346;BME280;2186;49.866;7.986;2022-07-17T04:14:53;101168.16;;;11.77;87.07
4346;BME280;2186;49.866;7.986;2022-07-17T04:17:20;101169.78;;;11.87;86.55
4346;BME280;2186;49.866;7.986;2022-07-17T04:19:47;101171.97;;;11.65;88.26
4346;BME280;2186;49.866;7.986;2022-07-17T04:22:15;101172.81;;;11.67;89.41
4346;BME280;2186;49.866;7.986;2022-07-17T04:24:41;101171.13;;;12.09;87.63
4346;BME280;2186;49.866;7.986;2022-07-17T04:27:08;101167.56;;;12.09;87.63
4346;BME280;2186;49.866;7.986;2022-07-17T04:29:35;101177.19;;;12.16;87.12
4346;BME280;2186;49.866;7.986;2022-07-17T04:32:02;101178.38;;;12.43;86.28
4346;BME280;2186;49.866;7.986;2022-07-17T04:34:29;101179.41;;;12.37;85.88
4346;BME280;2186;49.866;7.986;2022-07-17T04:36:56;101175.94;;;12.32;86.55
4346;BME280;2186;49.866;7.986;2022-07-17T04:39:22;101173.97;;;12.42;86.49
4346;BME280;2186;49.866;7.986;2022-07-17T04:41:50;101169.47;;;12.83;85.97
4346;BME280;2186;49.866;7.986;2022-07-17T04:44:18;101182.28;;;13.75;81.85
4346;BME280;2186;49.866;7.986;2022-07-17T04:46:44;101182.19;;;14.40;77.99
4346;BME280;2186;49.866;7.986;2022-07-17T04:49:12;101187.59;;;15.51;73.90
4346;BME280;2186;49.866;7.986;2022-07-17T04:51:38;101184.06;;;16.23;70.63
4346;BME280;2186;49.866;7.986;2022-07-17T04:54:05;101189.22;;;16.76;68.35
4346;BME280;2186;49.866;7.986;2022-07-17T04:56:31;101191.91;;;17.20;66.99
4346;BME280;2186;49.866;7.986;2022-07-17T04:58:58;101197.72;;;17.52;65.20
4346;BME280;2186;49.866;7.986;2022-07-17T05:01:24;101200.09;;;17.59;65.01
4346;BME280;2186;49.866;7.986;2022-07-17T05:03:51;101202.88;;;17.78;64.57
4346;BME280;2186;49.866;7.986;2022-07-17T05:06:17;101213.13;;;18.11;62.94
4346;BME280;2186;49.866;7.986;2022-07-17T05:08:44;101209.34;;;18.15;62.72
4346;BME280;2186;49.866;7.986;2022-07-17T05:11:10;101212.06;;;18.33;62.28
4346;BME280;2186;49.866;7.986;2022-07-17T05:13:37;101210.34;;;18.51;61.78
4346;BME280;2186;49.866;7.986;2022-07-17T05:16:04;101216.78;;;18.68;61.43
4346;BME280;2186;49.866;7.986;2022-07-17T05:18:31;101225.84;;;19.03;60.01
4346;BME280;2186;49.866;7.986;2022-07-17T05:20:57;101220.59;;;19.18;59.11
4346;BME280;2186;49.866;7.986;2022-07-17T05:23:23;101225.44;;;19.12;59.45
4346;BME280;2186;49.866;7.986;2022-07-17T05:25:50;101221.69;;;19.33;58.86
4346;BME280;2186;49.866;7.986;2022-07-17T05:28:16;101225.72;;;19.42;58.38
4346;BME280;2186;49.866;7.986;2022-07-17T05:30:43;101224.84;;;19.60;57.59
4346;BME280;2186;49.866;7.986;2022-07-17T05:33:09;101237.09;;;19.48;58.31
4346;BME280;2186;49.866;7.986;2022-07-17T05:35:36;101240.69;;;19.66;57.38
4346;BME280;2186;49.866;7.986;2022-07-17T05:38:02;101245.94;;;20.04;57.18
4346;BME280;2186;49.866;7.986;2022-07-17T05:40:29;101242.69;;;19.80;57.48
4346;BME280;2186;49.866;7.986;2022-07-17T05:42:56;101242.38;;;20.03;56.49
4346;BME280;2186;49.866;7.986;2022-07-17T05:45:24;101244.22;;;20.36;55.79
4346;BME280;2186;49.866;7.986;2022-07-17T05:47:50;101246.03;;;20.53;55.17
4346;BME280;2186;49.866;7.986;2022-07-17T05:50:17;101241.50;;;20.53;55.03
4346;BME280;2186;49.866;7.986;2022-07-17T05:52:43;101230.81;;;20.67;54.25
4346;BME280;2186;49.866;7.986;2022-07-17T05:55:10;101243.25;;;20.54;54.76
4346;BME280;2186;49.866;7.986;2022-07-17T05:57:36;101235.13;;;20.87;53.97
4346;BME280;2186;49.866;7.986;2022-07-17T06:00:03;101230.34;;;21.70;52.12
4346;BME280;2186;49.866;7.986;2022-07-17T06:02:30;101232.31;;;21.05;52.91
4346;BME280;2186;49.866;7.986;2022-07-17T06:04:56;101235.38;;;21.14;53.60
4346;BME280;2186;49.866;7.986;2022-07-17T06:07:23;101233.50;;;20.67;53.98
4346;BME280;2186;49.866;7.986;2022-07-17T06:09:49;101224.91;;;21.08;53.58
4346;BME280;2186;49.866;7.986;2022-07-17T06:12:16;101220.25;;;21.57;52.30
4346;BME280;2186;49.866;7.986;2022-07-17T06:14:42;101222.84;;;20.97;53.83
4346;BME280;2186;49.866;7.986;2022-07-17T06:17:09;101216.97;;;21.05;54.34
4346;BME280;2186;49.866;7.986;2022-07-17T06:19:35;101223.84;;;20.95;54.53
4346;BME280;2186;49.866;7.986;2022-07-17T06:22:02;101222.19;;;21.24;54.13
4346;BME280;2186;49.866;7.986;2022-07-17T06:24:28;101224.22;;;21.96;52.47
4346;BME280;2186;49.866;7.986;2022-07-17T06:26:55;101225.06;;;21.82;52.30
4346;BME280;2186;49.866;7.986;2022-07-17T06:29:21;101227.59;;;21.55;52.96
4346;BME280;2186;49.866;7.986;2022-07-17T06:31:47;101220.69;;;21.66;52.94
4346;BME280;2186;49.866;7.986;2022-07-17T06:34:14;101224.94;;;21.70;52.08
4346;BME280;2186;49.866;7.986;2022-07-17T06:36:40;101223.63;;;21.61;52.47
4346;BME280;2186;49.866;7.986;2022-07-17T06:39:07;101216.31;;;21.93;51.62
4346;BME280;2186;49.866;7.986;2022-07-17T06:41:33;101211.25;;;21.57;53.24
4346;BME280;2186;49.866;7.986;2022-07-17T06:44:00;101215.06;;;21.69;51.93
4346;BME280;2186;49.866;7.986;2022-07-17T06:46:26;101219.09;;;22.22;50.75
4346;BME280;2186;49.866;7.986;2022-07-17T06:48:53;101214.16;;;21.98;51.44
4346;BME280;2186;49.866;7.986;2022-07-17T06:51:19;101218.09;;;22.65;50.37
4346;BME280;2186;49.866;7.986;2022-07-17T06:53:46;101212.88;;;22.76;49.47
4346;BME280;2186;49.866;7.986;2022-07-17T06:56:12;101212.28;;;22.86;49.28
4346;BME280;2186;49.866;7.986;2022-07-17T06:58:39;101208.63;;;23.41;48.36
4346;BME280;2186;49.866;7.986;2022-07-17T07:01:05;101214.78;;;23.03;47.96
4346;BME280;2186;49.866;7.986;2022-07-17T07:03:32;101205.97;;;23.26;48.60
4346;BME280;2186;49.866;7.986;2022-07-17T07:05:58;101212.53;;;23.37;48.71
4346;BME280;2186;49.866;7.986;2022-07-17T07:08:25;101205.03;;;23.40;48.26
4346;BME280;2186;49.866;7.986;2022-07-17T07:10:52;101213.41;;;23.37;47.88
4346;BME280;2186;49.866;7.986;2022-07-17T07:13:18;101214.09;;;23.53;48.59
4346;BME280;2186;49.866;7.986;2022-07-17T07:15:45;101210.97;;;23.20;48.31
4346;BME280;2186;49.866;7.986;2022-07-17T07:18:11;101208.44;;;23.44;47.78
4346;BME280;2186;49.866;7.986;2022-07-17T07:20:38;101208.88;;;23.77;46.93
4346;BME280;2186;49.866;7.986;2022-07-17T07:23:04;101216.50;;;23.98;46.36
4346;BME280;2186;49.866;7.986;2022-07-17T07:25:33;101207.06;;;23.90;46.15
4346;BME280;2186;49.866;7.986;2022-07-17T07:28:01;101218.16;;;24.38;44.55
4346;BME280;2186;49.866;7.986;2022-07-17T07:30:27;101208.56;;;23.94;44.76
4346;BME280;2186;49.866;7.986;2022-07-17T07:32:54;101209.56;;;24.06;44.59
4346;BME280;2186;49.866;7.986;2022-07-17T07:35:21;101200.78;;;24.15;45.06
4346;BME280;2186;49.866;7.986;2022-07-17T07:37:47;101205.53;;;24.12;43.85
4346;BME280;2186;49.866;7.986;2022-07-17T07:40:14;101199.34;;;24.22;44.66
4346;BME280;2186;49.866;7.986;2022-07-17T07:42:40;101201.44;;;24.32;42.15
4346;BME280;2186;49.866;7.986;2022-07-17T07:45:08;101202.72;;;24.39;40.24
4346;BME280;2186;49.866;7.986;2022-07-17T07:47:45;101201.56;;;24.79;40.16
4346;BME280;2186;49.866;7.986;2022-07-17T07:50:13;101199.72;;;24.43;40.77
4346;BME280;2186;49.866;7.986;2022-07-17T07:52:41;101202.50;;;24.67;40.48
4346;BME280;2186;49.866;7.986;2022-07-17T07:55:09;101204.75;;;24.73;39.59
4346;BME280;2186;49.866;7.986;2022-07-17T07:57:44;101199.06;;;24.89;39.63
4346;BME280;2186;49.866;7.986;2022-07-17T08:00:11;101191.22;;;24.97;39.26
4346;BME280;2186;49.866;7.986;2022-07-17T08:02:39;101181.78;;;24.77;38.74
4346;BME280;2186;49.866;7.986;2022-07-17T08:05:06;101189.16;;;24.88;38.45
4346;BME280;2186;49.866;7.986;2022-07-17T08:07:35;101203.19;;;24.45;39.11
4346;BME280;2186;49.866;7.986;2022-07-17T08:10:03;101200.31;;;24.72;39.39
4346;BME280;2186;49.866;7.986;2022-07-17T08:12:30;101202.00;;;24.86;38.35
4346;BME280;2186;49.866;7.986;2022-07-17T08:15:17;101199.94;;;25.26;38.00
4346;BME280;2186;49.866;7.986;2022-07-17T08:17:45;101200.03;;;24.88;38.51
4346;BME280;2186;49.866;7.986;2022-07-17T08:20:12;101194.38;;;25.04;37.03
4346;BME280;2186;49.866;7.986;2022-07-17T08:22:44;101191.31;;;25.08;37.55
4346;BME280;2186;49.866;7.986;2022-07-17T08:25:31;101196.09;;;24.92;37.25
4346;BME280;2186;49.866;7.986;2022-07-17T08:27:59;101194.66;;;25.12;36.97
4346;BME280;2186;49.866;7.986;2022-07-17T08:30:26;101193.50;;;25.27;36.62
4346;BME280;2186;49.866;7.986;2022-07-17T08:32:53;101185.34;;;25.03;37.28
4346;BME280;2186;49.866;7.986;2022-07-17T08:35:19;101180.31;;;25.10;37.68
4346;BME280;2186;49.866;7.986;2022-07-17T08:37:51;101179.97;;;25.15;36.82
4346;BME280;2186;49.866;7.986;2022-07-17T08:40:23;101170.25;;;25.23;36.27
4346;BME280;2186;49.866;7.986;2022-07-17T08:42:50;101175.19;;;25.29;36.01
4346;BME280;2186;49.866;7.986;2022-07-17T08:45:18;101168.63;;;25.80;36.00
4346;BME280;2186;49.866;7.986;2022-07-17T08:47:45;101164.00;;;25.45;36.20
4346;BME280;2186;49.866;7.986;2022-07-17T08:50:12;101168.69;;;25.43;36.27
4346;BME280;2186;49.866;7.986;2022-07-17T08:52:40;101158.38;;;25.94;35.92
4346;BME280;2186;49.866;7.986;2022-07-17T08:55:12;101169.00;;;25.51;35.86
4346;BME280;2186;49.866;7.986;2022-07-17T08:57:41;101164.56;;;25.26;35.94
4346;BME280;2186;49.866;7.986;2022-07-17T09:00:14;101156.97;;;25.78;35.48
4346;BME280;2186;49.866;7.986;2022-07-17T09:05:25;101164.75;;;25.71;34.91
4346;BME280;2186;49.866;7.986;2022-07-17T09:07:53;101157.44;;;25.72;35.14
4346;BME280;2186;49.866;7.986;2022-07-17T09:10:39;101156.31;;;26.32;35.50
4346;BME280;2186;49.866;7.986;2022-07-17T09:13:21;101152.34;;;26.36;34.64
4346;BME280;2186;49.866;7.986;2022-07-17T09:15:50;101159.78;;;26.34;34.96
4346;BME280;2186;49.866;7.986;2022-07-17T09:18:17;101164.31;;;25.99;34.90
4346;BME280;2186;49.866;7.986;2022-07-17T09:20:50;101158.63;;;26.14;35.16
4346;BME280;2186;49.866;7.986;2022-07-17T09:23:19;101156.53;;;26.06;35.16
4346;BME280;2186;49.866;7.986;2022-07-17T09:25:49;101146.53;;;26.51;34.40
4346;BME280;2186;49.866;7.986;2022-07-17T09:28:17;101152.09;;;26.39;34.21
4346;BME280;2186;49.866;7.986;2022-07-17T09:30:46;101155.19;;;25.65;34.73
4346;BME280;2186;49.866;7.986;2022-07-17T09:33:18;101152.31;;;26.13;35.09
4346;BME280;2186;49.866;7.986;2022-07-17T09:38:24;101155.22;;;25.77;35.09
4346;BME280;2186;49.866;7.986;2022-07-17T09:43:56;101155.19;;;26.68;34.04
4346;BME280;2186;49.866;7.986;2022-07-17T09:46:34;101147.69;;;27.35;33.57
4346;BME280;2186;49.866;7.986;2022-07-17T09:49:05;101156.09;;;26.46;34.25
4346;BME280;2186;49.866;7.986;2022-07-17T09:51:36;101154.53;;;26.86;33.90
4346;BME280;2186;49.866;7.986;2022-07-17T09:54:06;101155.44;;;26.53;33.98
4346;BME280;2186;49.866;7.986;2022-07-17T09:56:34;101149.84;;;26.21;34.37
4346;BME280;2186;49.866;7.986;2022-07-17T09:59:10;101152.59;;;25.75;34.38
4346;BME280;2186;49.866;7.986;2022-07-17T10:01:42;101150.25;;;26.50;33.87
4346;BME280;2186;49.866;7.986;2022-07-17T10:04:11;101148.09;;;26.88;32.96
4346;BME280;2186;49.866;7.986;2022-07-17T10:06:39;101156.56;;;27.28;32.72
4346;BME280;2186;49.866;7.986;2022-07-17T10:09:05;101153.34;;;26.46;33.13
4346;BME280;2186;49.866;7.986;2022-07-17T10:11:40;101164.22;;;27.34;32.07
4346;BME280;2186;49.866;7.986;2022-07-17T10:14:14;101162.56;;;27.10;30.83
4346;BME280;2186;49.866;7.986;2022-07-17T10:16:42;101163.22;;;27.03;30.57
4346;BME280;2186;49.866;7.986;2022-07-17T10:24:20;101153.97;;;27.47;31.48
4346;BME280;2186;49.866;7.986;2022-07-17T10:26:47;101154.84;;;27.15;31.32
4346;BME280;2186;49.866;7.986;2022-07-17T10:29:36;101160.75;;;26.77;31.03
4346;BME280;2186;49.866;7.986;2022-07-17T10:32:17;101152.88;;;27.38;30.69
4346;BME280;2186;49.866;7.986;2022-07-17T10:34:46;101154.22;;;27.12;30.79
4346;BME280;2186;49.866;7.986;2022-07-17T10:42:54;101154.63;;;27.07;30.81
4346;BME280;2186;49.866;7.986;2022-07-17T10:45:33;101153.84;;;27.49;29.81
4346;BME280;2186;49.866;7.986;2022-07-17T10:48:03;101154.06;;;27.57;29.51
4346;BME280;2186;49.866;7.986;2022-07-17T10:50:33;101162.28;;;27.98;30.36
4346;BME280;2186;49.866;7.986;2022-07-17T10:55:34;101154.22;;;27.97;28.95
4346;BME280;2186;49.866;7.986;2022-07-17T10:58:02;101157.34;;;28.13;27.95
4346;BME280;2186;49.866;7.986;2022-07-17T11:00:30;101153.41;;;28.77;27.13
4346;BME280;2186;49.866;7.986;2022-07-17T11:03:08;101154.69;;;29.13;26.75
4346;BME280;2186;49.866;7.986;2022-07-17T11:05:34;101154.56;;;28.34;27.26
4346;BME280;2186;49.866;7.986;2022-07-17T11:08:02;101152.53;;;28.06;28.14
4346;BME280;2186;49.866;7.986;2022-07-17T11:10:32;101156.88;;;27.34;29.14
4346;BME280;2186;49.866;7.986;2022-07-17T11:13:14;101161.22;;;27.37;29.06
4346;BME280;2186;49.866;7.986;2022-07-17T11:15:47;101154.56;;;27.51;29.89
4346;BME280;2186;49.866;7.986;2022-07-17T11:18:16;101144.03;;;27.99;28.91
4346;BME280;2186;49.866;7.986;2022-07-17T11:20:55;101151.94;;;28.02;27.97
4346;BME280;2186;49.866;7.986;2022-07-17T11:23:24;101151.97;;;28.32;28.45
4346;BME280;2186;49.866;7.986;2022-07-17T11:26:09;101144.78;;;28.31;27.15
4346;BME280;2186;49.866;7.986;2022-07-17T11:28:42;101143.81;;;28.42;27.38
4346;BME280;2186;49.866;7.986;2022-07-17T11:31:23;101148.09;;;27.84;28.99
4346;BME280;2186;49.866;7.986;2022-07-17T11:33:59;101140.41;;;27.98;29.18
4346;BME280;2186;49.866;7.986;2022-07-17T11:36:29;101148.19;;;27.61;29.10
4346;BME280;2186;49.866;7.986;2022-07-17T11:39:00;101138.78;;;27.54;29.52
4346;BME280;2186;49.866;7.986;2022-07-17T11:43:59;101132.00;;;28.42;28.82
4346;BME280;2186;49.866;7.986;2022-07-17T11:46:29;101134.31;;;28.46;28.28
4346;BME280;2186;49.866;7.986;2022-07-17T11:48:57;101136.19;;;28.46;28.40
4346;BME280;2186;49.866;7.986;2022-07-17T11:52:05;101131.25;;;28.70;27.83
4346;BME280;2186;49.866;7.986;2022-07-17T11:54:32;101129.50;;;28.69;26.93
4346;BME280;2186;49.866;7.986;2022-07-17T11:57:09;101131.34;;;28.59;26.19
4346;BME280;2186;49.866;7.986;2022-07-17T11:59:35;101130.53;;;28.07;26.97
4346;BME280;2186;49.866;7.986;2022-07-17T12:02:10;101127.19;;;28.03;27.56
4346;BME280;2186;49.866;7.986;2022-07-17T12:04:51;101118.19;;;28.43;27.09
4346;BME280;2186;49.866;7.986;2022-07-17T12:07:22;101108.88;;;29.34;26.56
4346;BME280;2186;49.866;7.986;2022-07-17T12:09:50;101112.88;;;29.40;26.70
4346;BME280;2186;49.866;7.986;2022-07-17T12:12:24;101109.66;;;28.86;26.64
4346;BME280;2186;49.866;7.986;2022-07-17T12:14:56;101107.91;;;28.76;27.49
4346;BME280;2186;49.866;7.986;2022-07-17T12:17:25;101104.31;;;28.75;27.30
4346;BME280;2186;49.866;7.986;2022-07-17T12:20:07;101099.47;;;28.98;27.40
4346;BME280;2186;49.866;7.986;2022-07-17T12:25:22;101094.47;;;28.53;26.80
4346;BME280;2186;49.866;7.986;2022-07-17T12:27:48;101097.63;;;29.08;27.37
4346;BME280;2186;49.866;7.986;2022-07-17T12:30:14;101083.47;;;29.32;26.38
4346;BME280;2186;49.866;7.986;2022-07-17T12:32:41;101093.56;;;29.12;26.20
4346;BME280;2186;49.866;7.986;2022-07-17T12:35:08;101087.59;;;28.69;26.43
4346;BME280;2186;49.866;7.986;2022-07-17T12:37:35;101079.66;;;28.56;27.46
4346;BME280;2186;49.866;7.986;2022-07-17T12:40:02;101083.41;;;28.65;27.38
4346;BME280;2186;49.866;7.986;2022-07-17T12:42:29;101085.63;;;28.90;26.65
4346;BME280;2186;49.866;7.986;2022-07-17T12:44:55;101079.38;;;28.69;26.73
4346;BME280;2186;49.866;7.986;2022-07-17T12:47:22;101075.72;;;29.08;27.38
4346;BME280;2186;49.866;7.986;2022-07-17T12:49:48;101082.19;;;29.07;27.50
4346;BME280;2186;49.866;7.986;2022-07-17T12:52:15;101081.75;;;29.22;27.17
4346;BME280;2186;49.866;7.986;2022-07-17T12:54:42;101060.25;;;29.36;27.51
4346;BME280;2186;49.866;7.986;2022-07-17T12:57:08;101063.59;;;29.49;26.91
4346;BME280;2186;49.866;7.986;2022-07-17T12:59:35;101059.84;;;29.02;27.34
4346;BME280;2186;49.866;7.986;2022-07-17T13:02:02;101055.78;;;29.55;27.29
4346;BME280;2186;49.866;7.986;2022-07-17T13:04:28;101056.94;;;29.04;27.08
4346;BME280;2186;49.866;7.986;2022-07-17T13:06:55;101063.59;;;29.11;27.05
4346;BME280;2186;49.866;7.986;2022-07-17T13:09:21;101064.28;;;29.32;27.42
4346;BME280;2186;49.866;7.986;2022-07-17T13:11:48;101051.44;;;29.33;28.09
4346;BME280;2186;49.866;7.986;2022-07-17T13:14:14;101065.91;;;29.35;27.17
4346;BME280;2186;49.866;7.986;2022-07-17T13:16:42;101063.75;;;29.09;27.59
4346;BME280;2186;49.866;7.986;2022-07-17T13:19:09;101062.84;;;29.38;27.12
4346;BME280;2186;49.866;7.986;2022-07-17T13:21:37;101060.09;;;29.57;27.02
4346;BME280;2186;49.866;7.986;2022-07-17T13:24:04;101062.56;;;29.02;27.12
4346;BME280;2186;49.866;7.986;2022-07-17T13:26:32;101055.19;;;28.83;27.00
4346;BME280;2186;49.866;7.986;2022-07-17T13:29:00;101051.13;;;29.45;27.80
4346;BME280;2186;49.866;7.986;2022-07-17T13:31:27;101054.78;;;29.36;27.12
4346;BME280;2186;49.866;7.986;2022-07-17T13:33:53;101057.22;;;28.91;27.78
4346;BME280;2186;49.866;7.986;2022-07-17T13:36:20;101052.63;;;29.11;27.40
4346;BME280;2186;49.866;7.986;2022-07-17T13:38:47;101042.22;;;29.63;27.32
4346;BME280;2186;49.866;7.986;2022-07-17T13:41:13;101043.38;;;29.41;27.28
4346;BME280;2186;49.866;7.986;2022-07-17T13:43:40;101047.56;;;29.35;27.11